Time;durP1;ratioP1;P1;durP2;ratioP2;P2;SDS_P1;SDS_P2;PMS_P1;PMS_P2;Temp;Humidity;BMP_temperature;BMP_pressure;BME280_temperature;BME280_humidity;BME280_pressure;Samples;Min_cycle;Max_cycle;Signal;HPM_P1;HPM_P2
2021/12/21 00:00:34;;;;;;;45.73;12.27;;;0.70;99.90;;;;;;5075249;28;20196;-80
2021/12/21 00:03:01;;;;;;;16.47;7.53;;;0.70;99.90;;;;;;5075516;28;20203;-80
2021/12/21 00:05:29;;;;;;;13.30;5.73;;;0.70;99.90;;;;;;5075349;28;20224;-80
2021/12/21 00:07:58;;;;;;;9.43;5.40;;;0.70;99.90;;;;;;5075055;28;20200;-80
2021/12/21 00:10:27;;;;;;;10.63;5.80;;;0.70;99.90;;;;;;5075400;28;20223;-79
2021/12/21 00:13:06;;;;;;;13.30;6.20;;;0.80;99.90;;;;;;5075284;28;20283;-80
2021/12/21 00:18:31;;;;;;;8.83;4.73;;;0.80;99.90;;;;;;5071150;28;20218;-80
2021/12/21 00:21:05;;;;;;;10.70;5.70;;;0.80;99.90;;;;;;5075288;28;20179;-80
2021/12/21 00:23:38;;;;;;;10.57;4.70;;;0.90;99.90;;;;;;5074891;28;20211;-80
2021/12/21 00:26:09;;;;;;;8.30;4.80;;;0.90;99.90;;;;;;5074809;28;20552;-80
2021/12/21 00:28:42;;;;;;;5.70;3.70;;;0.90;99.90;;;;;;5074759;28;20187;-80
2021/12/21 00:31:11;;;;;;;5.87;2.90;;;0.90;99.90;;;;;;5075034;28;20210;-80
2021/12/21 00:33:40;;;;;;;5.13;3.00;;;0.90;99.90;;;;;;5074947;28;20203;-80
2021/12/21 00:36:08;;;;;;;4.47;2.40;;;0.90;99.90;;;;;;5074897;28;20282;-79
2021/12/21 00:38:35;;;;;;;5.67;2.83;;;0.80;99.90;;;;;;5074963;28;20207;-80
2021/12/21 00:41:03;;;;;;;4.80;2.67;;;0.80;99.90;;;;;;5074832;28;20203;-80
2021/12/21 00:43:30;;;;;;;5.40;2.77;;;0.80;99.90;;;;;;5074462;28;20199;-79
2021/12/21 00:45:57;;;;;;;6.07;2.83;;;0.80;99.90;;;;;;5074392;28;20688;-80
2021/12/21 00:48:29;;;;;;;6.47;3.03;;;0.80;99.90;;;;;;5074383;28;20188;-79
2021/12/21 00:50:58;;;;;;;5.17;3.00;;;0.80;99.90;;;;;;5074758;28;20187;-80
2021/12/21 00:53:26;;;;;;;5.17;3.20;;;0.70;99.90;;;;;;5074678;28;20192;-80
2021/12/21 00:55:53;;;;;;;5.73;3.20;;;0.70;99.90;;;;;;5074527;28;20196;-80
2021/12/21 00:58:20;;;;;;;6.90;3.47;;;0.80;99.90;;;;;;5074272;28;20615;-80
2021/12/21 01:00:47;;;;;;;5.70;3.20;;;0.70;99.90;;;;;;5074213;28;20723;-80
2021/12/21 01:03:16;;;;;;;8.80;3.93;;;0.80;99.90;;;;;;5074724;28;20215;-80
2021/12/21 01:05:51;;;;;;;5.27;3.03;;;0.70;99.90;;;;;;5074722;28;20605;-80
2021/12/21 01:08:22;;;;;;;5.17;3.13;;;0.80;99.90;;;;;;5074199;28;20207;-80
2021/12/21 01:11:02;;;;;;;8.30;3.80;;;0.70;99.90;;;;;;5073987;28;20227;-79
2021/12/21 01:13:51;;;;;;;7.93;3.43;;;0.80;99.90;;;;;;5074259;28;20183;-80
2021/12/21 01:16:25;;;;;;;6.30;3.20;;;0.80;99.90;;;;;;5073978;28;20184;-80
2021/12/21 01:19:02;;;;;;;6.93;3.47;;;0.80;99.90;;;;;;5074141;28;20182;-79
2021/12/21 01:21:35;;;;;;;5.63;3.13;;;0.80;99.90;;;;;;5073777;28;20179;-80
2021/12/21 01:27:02;;;;;;;6.17;3.60;;;0.80;99.90;;;;;;5073771;28;20211;-79
2021/12/21 01:29:36;;;;;;;6.90;3.50;;;0.80;99.90;;;;;;5073628;28;20215;-80
2021/12/21 01:32:09;;;;;;;5.83;3.27;;;0.80;99.90;;;;;;5073536;28;20223;-80
2021/12/21 01:34:47;;;;;;;6.50;3.63;;;0.80;99.90;;;;;;5073468;28;20220;-80
2021/12/21 01:37:22;;;;;;;7.70;3.20;;;0.80;99.90;;;;;;5073449;28;20697;-79
2021/12/21 01:40:11;;;;;;;6.43;3.70;;;0.80;99.90;;;;;;5073614;28;20179;-79
2021/12/21 01:42:54;;;;;;;9.13;4.63;;;0.80;99.90;;;;;;5073925;28;20187;-80
2021/12/21 01:50:53;;;;;;;8.90;5.20;;;0.70;99.90;;;;;;5073223;28;20176;-80
2021/12/21 01:53:22;;;;;;;11.33;5.40;;;0.80;99.90;;;;;;5073705;28;20651;-80
2021/12/21 01:55:49;;;;;;;9.67;5.07;;;0.70;99.90;;;;;;5073709;28;20265;-80
2021/12/21 01:58:16;;;;;;;10.03;4.97;;;0.70;99.90;;;;;;5073170;28;20188;-80
2021/12/21 02:00:43;;;;;;;10.77;5.50;;;0.70;99.90;;;;;;5073259;28;20200;-80
2021/12/21 02:03:10;;;;;;;9.33;4.47;;;0.80;99.90;;;;;;5073173;28;20196;-80
2021/12/21 02:05:38;;;;;;;9.47;4.30;;;0.70;99.90;;;;;;5073076;28;20265;-80
2021/12/21 02:08:06;;;;;;;8.13;4.30;;;0.70;99.90;;;;;;5073210;28;20195;-80
2021/12/21 02:10:35;;;;;;;7.93;4.10;;;0.70;99.90;;;;;;5072540;28;20219;-80
2021/12/21 02:13:02;;;;;;;7.30;4.07;;;0.70;99.90;;;;;;5073053;28;20192;-80
2021/12/21 02:15:30;;;;;;;7.33;3.87;;;0.70;99.90;;;;;;5072690;28;20237;-80
2021/12/21 02:18:29;;;;;;;8.47;3.70;;;0.70;99.90;;;;;;5072857;28;20188;-80
2021/12/21 02:21:02;;;;;;;8.57;3.30;;;0.70;99.90;;;;;;5072634;28;20592;-80
2021/12/21 02:23:33;;;;;;;6.17;3.60;;;0.70;99.90;;;;;;5073108;28;20230;-81
2021/12/21 02:26:35;;;;;;;7.30;3.63;;;0.70;99.90;;;;;;5072481;28;20208;-80
2021/12/21 02:29:13;;;;;;;5.20;3.27;;;0.70;99.90;;;;;;5072541;28;20662;-80
2021/12/21 02:31:42;;;;;;;7.07;3.53;;;0.60;99.90;;;;;;5072832;28;20176;-79
2021/12/21 02:34:09;;;;;;;6.07;3.03;;;0.60;99.90;;;;;;5072710;28;20226;-80
2021/12/21 02:36:39;;;;;;;6.87;3.20;;;0.60;99.90;;;;;;5072702;28;20198;-80
2021/12/21 02:39:07;;;;;;;6.13;3.13;;;0.60;99.90;;;;;;5072681;28;20188;-80
2021/12/21 02:41:35;;;;;;;6.10;3.30;;;0.60;99.90;;;;;;5072663;28;20238;-79
2021/12/21 02:44:02;;;;;;;5.70;3.40;;;0.60;99.90;;;;;;5072268;28;20241;-80
2021/12/21 02:46:29;;;;;;;5.47;3.60;;;0.60;99.90;;;;;;5072694;28;20212;-79
2021/12/21 02:48:59;;;;;;;6.27;3.13;;;0.60;99.90;;;;;;5072232;28;20656;-80
2021/12/21 02:51:26;;;;;;;5.97;3.07;;;0.50;99.90;;;;;;5072562;28;20245;-80
2021/12/21 02:53:55;;;;;;;6.03;3.07;;;0.50;99.90;;;;;;5072850;28;20272;-79
2021/12/21 02:56:22;;;;;;;4.60;2.80;;;0.50;99.90;;;;;;5072791;28;20203;-80
2021/12/21 02:58:49;;;;;;;5.03;2.97;;;0.60;99.90;;;;;;5072394;28;20198;-80
2021/12/21 03:01:17;;;;;;;5.57;3.17;;;0.50;99.90;;;;;;5072195;28;20661;-80
2021/12/21 03:03:44;;;;;;;5.70;3.30;;;0.50;99.90;;;;;;5072158;28;20731;-80
2021/12/21 03:06:25;;;;;;;5.83;3.13;;;0.50;99.90;;;;;;5072312;28;20215;-80
2021/12/21 03:08:57;;;;;;;5.50;3.40;;;0.50;99.90;;;;;;5072717;28;20184;-80
2021/12/21 03:11:37;;;;;;;6.53;3.07;;;0.50;99.90;;;;;;5072547;28;20232;-80
2021/12/21 03:14:04;;;;;;;5.63;3.00;;;0.50;99.90;;;;;;5072388;28;20234;-80
2021/12/21 03:16:38;;;;;;;5.27;3.17;;;0.50;99.90;;;;;;5071973;28;20203;-80
2021/12/21 03:19:06;;;;;;;6.73;3.07;;;0.50;99.90;;;;;;5071927;28;20690;-80
2021/12/21 03:21:34;;;;;;;5.10;3.33;;;0.40;99.90;;;;;;5072210;28;20196;-80
2021/12/21 03:24:03;;;;;;;7.17;3.80;;;0.50;99.90;;;;;;5071895;28;20198;-79
2021/12/21 03:26:30;;;;;;;6.90;3.50;;;0.50;99.90;;;;;;5072137;28;20224;-80
2021/12/21 03:28:58;;;;;;;6.90;3.23;;;0.50;99.90;;;;;;5072552;28;20196;-80
2021/12/21 03:31:25;;;;;;;6.87;4.00;;;0.40;99.90;;;;;;5077381;28;20257;-80
2021/12/21 03:33:53;;;;;;;4.67;3.20;;;0.40;99.90;;;;;;5071822;28;20583;-80
2021/12/21 03:36:20;;;;;;;5.20;3.27;;;0.40;99.90;;;;;;5072109;28;20203;-80
2021/12/21 03:38:55;;;;;;;7.47;4.73;;;0.40;99.90;;;;;;5071753;28;20581;-80
2021/12/21 03:41:26;;;;;;;6.97;3.70;;;0.40;99.90;;;;;;5071843;28;20195;-80
2021/12/21 03:43:53;;;;;;;8.90;4.60;;;0.30;99.90;;;;;;5072033;28;20188;-80
2021/12/21 03:46:20;;;;;;;7.90;4.63;;;0.30;99.90;;;;;;5071955;28;20223;-80
2021/12/21 03:48:48;;;;;;;6.53;3.80;;;0.30;99.90;;;;;;5071680;28;20188;-80
2021/12/21 03:51:16;;;;;;;8.97;3.93;;;0.30;99.90;;;;;;5073321;28;20195;-79
2021/12/21 03:53:44;;;;;;;6.90;4.07;;;0.40;99.90;;;;;;5075305;28;20590;-80
2021/12/21 03:56:28;;;;;;;6.77;3.50;;;0.30;99.90;;;;;;5075393;28;20722;-79
2021/12/21 03:58:57;;;;;;;7.40;4.17;;;0.30;99.90;;;;;;5075421;28;20638;-80
2021/12/21 04:01:24;;;;;;;7.50;4.60;;;0.30;99.90;;;;;;5075593;28;20278;-79
2021/12/21 04:03:51;;;;;;;5.20;3.17;;;0.30;99.90;;;;;;5075626;28;21066;-79
2021/12/21 04:06:18;;;;;;;6.73;3.53;;;0.30;99.90;;;;;;5075195;28;20625;-79
2021/12/21 04:08:45;;;;;;;6.30;3.53;;;0.30;99.90;;;;;;5075070;28;20196;-81
2021/12/21 04:11:12;;;;;;;7.67;3.67;;;0.30;99.90;;;;;;5075384;28;20231;-80
2021/12/21 04:13:39;;;;;;;4.83;2.40;;;0.30;99.90;;;;;;5075366;28;20237;-80
2021/12/21 04:16:07;;;;;;;4.93;2.40;;;0.20;99.90;;;;;;5075425;28;20196;-80
2021/12/21 04:18:37;;;;;;;9.37;3.87;;;0.20;99.90;;;;;;5075255;28;20196;-79
2021/12/21 04:21:05;;;;;;;6.37;3.30;;;0.20;99.90;;;;;;5075385;28;20265;-80
2021/12/21 04:23:33;;;;;;;4.60;2.60;;;0.10;99.90;;;;;;5074816;28;20601;-80
2021/12/21 04:26:00;;;;;;;6.67;3.47;;;0.10;99.90;;;;;;5075313;28;20269;-80
2021/12/21 04:28:27;;;;;;;8.10;3.37;;;0.20;99.90;;;;;;5074825;28;20249;-80
2021/12/21 04:30:54;;;;;;;7.80;3.23;;;0.10;99.90;;;;;;5074936;28;20199;-80
2021/12/21 04:33:22;;;;;;;7.17;3.23;;;0.10;99.90;;;;;;5074654;28;20196;-80
2021/12/21 04:35:49;;;;;;;8.67;4.00;;;0.10;99.90;;;;;;5074935;28;20200;-80
2021/12/21 04:38:22;;;;;;;7.17;3.47;;;0.10;99.90;;;;;;5075014;28;20245;-80
2021/12/21 04:40:53;;;;;;;7.97;3.40;;;0.00;99.90;;;;;;5074580;28;20632;-80
2021/12/21 04:43:20;;;;;;;7.27;3.97;;;0.00;99.90;;;;;;5074566;28;20644;-80
2021/12/21 04:45:48;;;;;;;9.50;3.60;;;-0.10;99.90;;;;;;5074635;28;20192;-79
2021/12/21 04:48:15;;;;;;;47.40;16.93;;;0.00;99.90;;;;;;5074435;28;20249;-80
2021/12/21 04:50:45;;;;;;;15.93;6.53;;;-0.10;99.90;;;;;;5074707;28;20200;-79
2021/12/21 04:53:12;;;;;;;6.87;3.30;;;-0.10;99.90;;;;;;5074635;28;20249;-80
2021/12/21 04:55:39;;;;;;;8.73;3.30;;;-0.20;99.90;;;;;;5074223;28;20195;-80
2021/12/21 04:58:08;;;;;;;6.00;3.03;;;-0.20;99.90;;;;;;5074738;28;20195;-80
2021/12/21 05:00:37;;;;;;;5.30;3.60;;;-0.30;99.90;;;;;;5074201;28;20188;-80
2021/12/21 05:03:05;;;;;;;7.63;3.17;;;-0.30;99.90;;;;;;5073340;28;20238;-80
2021/12/21 05:05:32;;;;;;;7.30;3.67;;;-0.40;99.90;;;;;;5074407;28;20593;-80
2021/12/21 05:08:11;;;;;;;11.77;4.73;;;-0.50;99.90;;;;;;5073878;28;20281;-80
2021/12/21 05:10:47;;;;;;;12.23;5.83;;;-0.60;99.90;;;;;;5074161;28;20251;-79
2021/12/21 05:13:14;;;;;;;11.53;5.43;;;-0.60;99.90;;;;;;5074016;28;20569;-79
2021/12/21 05:15:42;;;;;;;16.90;8.60;;;-0.70;99.90;;;;;;5074183;28;20604;-80
2021/12/21 05:18:10;;;;;;;23.77;11.47;;;-0.80;99.90;;;;;;5073768;28;20738;-80
2021/12/21 05:20:37;;;;;;;25.60;14.07;;;-0.90;99.90;;;;;;5074213;28;20249;-80
2021/12/21 05:23:06;;;;;;;26.07;14.80;;;-1.00;99.90;;;;;;5073980;28;20668;-80
2021/12/21 05:25:33;;;;;;;18.60;9.97;;;-1.00;99.90;;;;;;5074204;28;20252;-80
2021/12/21 05:28:01;;;;;;;20.03;9.27;;;-1.10;99.90;;;;;;5073851;28;20211;-79
2021/12/21 05:30:28;;;;;;;26.40;12.10;;;-1.20;99.90;;;;;;5073582;28;20196;-79
2021/12/21 05:32:56;;;;;;;28.27;12.27;;;-1.30;99.90;;;;;;5073523;28;20584;-79
2021/12/21 05:35:25;;;;;;;17.63;8.97;;;-1.30;99.90;;;;;;5073772;28;20200;-80
2021/12/21 05:37:56;;;;;;;16.00;7.20;;;-1.40;99.90;;;;;;5073474;28;20234;-80
2021/12/21 05:40:32;;;;;;;12.17;5.57;;;-1.50;99.90;;;;;;5073411;28;20694;-80
2021/12/21 05:42:59;;;;;;;12.27;6.50;;;-1.60;99.90;;;;;;5073418;28;20644;-79
2021/12/21 05:45:26;;;;;;;15.20;5.93;;;-1.70;99.90;;;;;;5073551;28;20241;-80
2021/12/21 05:47:53;;;;;;;11.93;6.27;;;-1.70;99.90;;;;;;5073469;28;20277;-80
2021/12/21 05:50:20;;;;;;;20.60;11.30;;;-1.80;99.90;;;;;;5073516;28;20277;-80
2021/12/21 05:52:48;;;;;;;17.60;8.13;;;-1.80;99.90;;;;;;5073105;28;20195;-80
2021/12/21 05:55:17;;;;;;;16.47;7.50;;;-1.80;99.90;;;;;;5073405;28;20199;-80
2021/12/21 05:57:46;;;;;;;16.70;8.47;;;-1.90;99.90;;;;;;5073342;28;20196;-79
2021/12/21 06:00:15;;;;;;;21.40;8.57;;;-1.90;99.90;;;;;;5073382;28;20200;-79
2021/12/21 06:02:43;;;;;;;20.43;9.17;;;-1.90;99.90;;;;;;5073335;28;20241;-80
2021/12/21 06:05:10;;;;;;;29.97;13.23;;;-1.90;99.90;;;;;;5073050;28;20196;-80
2021/12/21 06:07:37;;;;;;;18.53;9.77;;;-2.00;99.90;;;;;;5073396;28;20215;-80
2021/12/21 06:10:12;;;;;;;20.23;9.77;;;-2.00;99.90;;;;;;5072835;28;20621;-80
2021/12/21 06:12:57;;;;;;;14.13;7.63;;;-2.10;99.90;;;;;;5073485;28;20176;-80
2021/12/21 06:15:34;;;;;;;17.47;6.30;;;-2.10;99.90;;;;;;5072470;28;20233;-80
2021/12/21 06:25:02;;;;;;;20.10;6.60;;;-2.20;99.90;;;;;;5091497;28;20218;-80
2021/12/21 06:27:07;;;;;;;29.93;11.50;;;-2.20;99.90;;;;;;5089514;28;20219;-79
2021/12/21 06:29:42;;;;;;;25.20;9.90;;;-2.30;99.90;;;;;;5090522;28;20200;-80
2021/12/21 06:32:15;;;;;;;40.90;17.40;;;-2.30;99.90;;;;;;5089735;28;20202;-79
2021/12/21 06:35:03;;;;;;;40.23;16.87;;;-2.40;99.90;;;;;;5089373;28;20198;-82
2021/12/21 06:37:42;;;;;;;39.83;11.60;;;-2.40;99.90;;;;;;5089386;28;20203;-82
2021/12/21 06:40:15;;;;;;;23.53;8.10;;;-2.40;99.90;;;;;;5073395;28;20207;-78
2021/12/21 06:42:46;;;;;;;21.43;8.60;;;-2.40;99.90;;;;;;5089558;28;20180;-81
2021/12/21 06:45:27;;;;;;;27.63;11.70;;;-2.40;99.90;;;;;;5088305;28;20191;-79
2021/12/21 06:51:09;;;;;;;26.10;10.57;;;-2.50;99.90;;;;;;5087521;28;20182;-79
2021/12/21 06:53:41;;;;;;;30.63;11.03;;;-2.40;99.90;;;;;;5087351;28;20222;-80
2021/12/21 06:56:21;;;;;;;26.60;9.43;;;-2.50;99.90;;;;;;5088241;28;20180;-80
2021/12/21 06:59:03;;;;;;;26.30;9.70;;;-2.50;99.90;;;;;;5087894;28;20190;-78
2021/12/21 07:01:38;;;;;;;27.77;9.97;;;-2.50;99.90;;;;;;5087193;28;20195;-78
2021/12/21 07:04:11;;;;;;;32.60;11.70;;;-2.50;99.90;;;;;;5087202;28;20252;-77
2021/12/21 07:06:47;;;;;;;34.17;12.67;;;-2.50;99.90;;;;;;5087419;28;20204;-80
2021/12/21 07:09:21;;;;;;;35.33;12.23;;;-2.50;99.90;;;;;;5097955;28;20193;-80
2021/12/21 07:12:07;;;;;;;36.83;12.87;;;-2.50;99.90;;;;;;5106375;28;20630;-79
2021/12/21 07:20:12;;;;;;;37.73;15.77;;;-2.40;99.90;;;;;;5106880;28;20198;-79
2021/12/21 07:22:40;;;;;;;30.60;14.60;;;-2.40;99.90;;;;;;5109191;28;20191;-80
2021/12/21 07:25:14;;;;;;;44.67;16.13;;;-2.40;99.90;;;;;;5108703;28;20214;-79
2021/12/21 07:27:42;;;;;;;24.23;9.50;;;-2.40;99.90;;;;;;5113130;28;20274;-80
2021/12/21 07:30:11;;;;;;;32.57;12.67;;;-2.30;99.90;;;;;;5097452;28;20230;-77
2021/12/21 07:32:38;;;;;;;25.53;12.60;;;-2.20;99.90;;;;;;5083394;28;20196;-80
2021/12/21 07:35:06;;;;;;;26.17;11.67;;;-2.20;99.90;;;;;;5076058;28;20200;-80
2021/12/21 07:37:35;;;;;;;39.20;17.47;;;-2.10;99.90;;;;;;5076081;28;20219;-80
2021/12/21 07:40:03;;;;;;;35.23;15.00;;;-2.00;99.90;;;;;;5075717;28;20241;-80
2021/12/21 07:42:33;;;;;;;26.33;11.17;;;-1.90;99.90;;;;;;5075570;28;20191;-80
2021/12/21 07:45:12;;;;;;;35.67;14.13;;;-1.80;99.90;;;;;;5075678;28;20203;-80
2021/12/21 07:47:41;;;;;;;42.93;16.60;;;-1.60;99.90;;;;;;5079282;28;20669;-79
2021/12/21 07:50:12;;;;;;;47.03;16.50;;;-1.40;99.90;;;;;;5090539;28;20204;-79
2021/12/21 07:52:41;;;;;;;48.50;17.33;;;-1.30;99.90;;;;;;5076123;28;20562;-78
2021/12/21 07:55:13;;;;;;;42.90;16.50;;;-1.10;99.90;;;;;;5075635;28;20209;-78
2021/12/21 07:57:41;;;;;;;36.97;16.03;;;-0.90;99.90;;;;;;5076975;28;20703;-80
2021/12/21 08:00:12;;;;;;;47.53;15.97;;;-0.80;99.90;;;;;;5075223;28;20196;-80
2021/12/21 08:02:39;;;;;;;192.20;63.37;;;-0.60;99.90;;;;;;5115130;28;20192;-79
2021/12/21 08:09:09;;;;;;;59.37;17.30;;;-0.20;99.90;;;;;;5075170;28;20313;-80
2021/12/21 08:14:30;;;;;;;28.50;15.33;;;0.20;99.90;;;;;;5075178;28;20180;-80
2021/12/21 08:16:57;;;;;;;67.50;27.97;;;0.40;99.90;;;;;;5075119;28;20228;-81
2021/12/21 08:19:25;;;;;;;130.70;51.93;;;0.50;99.90;;;;;;5074909;28;20640;-81
2021/12/21 08:21:52;;;;;;;38.07;18.20;;;0.70;99.90;;;;;;5075410;28;20206;-81
2021/12/21 08:24:29;;;;;;;32.03;14.80;;;0.80;99.90;;;;;;5079074;28;20219;-82
2021/12/21 08:27:04;;;;;;;32.00;15.20;;;1.00;99.90;;;;;;5074678;28;20204;-82
2021/12/21 08:29:32;;;;;;;26.53;12.60;;;1.10;99.90;;;;;;5095336;28;20210;-82
2021/12/21 08:32:00;;;;;;;35.67;14.17;;;1.30;99.90;;;;;;5096309;28;20199;-80
2021/12/21 08:34:30;;;;;;;38.60;14.87;;;1.40;99.90;;;;;;5093393;28;20191;-79
2021/12/21 08:37:01;;;;;;;69.20;21.67;;;1.50;99.90;;;;;;5103106;28;20268;-83
2021/12/21 08:39:36;;;;;;;85.50;29.70;;;1.60;99.90;;;;;;5100626;28;20181;-79
2021/12/21 08:42:12;;;;;;;158.60;59.97;;;1.70;99.90;;;;;;5114425;28;20329;-83
2021/12/21 08:44:41;;;;;;;84.33;32.47;;;1.80;99.90;;;;;;5105822;28;20649;-80
2021/12/21 08:47:14;;;;;;;72.23;28.10;;;1.80;99.90;;;;;;5109411;28;20245;-80
2021/12/21 08:49:47;;;;;;;290.10;95.00;;;1.80;99.90;;;;;;5096413;28;20241;-82
2021/12/21 08:52:15;;;;;;;104.53;37.77;;;1.80;99.90;;;;;;5077816;28;20759;-80
2021/12/21 08:54:44;;;;;;;172.80;56.80;;;1.80;99.90;;;;;;5086847;28;20710;-78
2021/12/21 08:57:13;;;;;;;105.47;39.63;;;1.70;99.90;;;;;;5074384;28;20204;-78
2021/12/21 08:59:40;;;;;;;104.13;37.93;;;1.70;99.90;;;;;;5082038;28;20604;-80
2021/12/21 09:02:07;;;;;;;38.57;18.30;;;1.80;99.90;;;;;;5075898;28;20588;-77
2021/12/21 09:04:35;;;;;;;30.47;14.57;;;1.80;99.90;;;;;;5076584;28;20532;-79
2021/12/21 09:07:03;;;;;;;36.20;16.00;;;1.80;99.90;;;;;;5090446;28;20575;-79
2021/12/21 09:09:30;;;;;;;25.67;12.50;;;1.90;99.90;;;;;;5081110;28;20196;-78
2021/12/21 09:11:57;;;;;;;32.13;14.33;;;2.00;99.90;;;;;;5074326;28;20728;-79
2021/12/21 09:14:31;;;;;;;21.63;9.47;;;2.00;99.90;;;;;;5077401;28;20200;-79
2021/12/21 09:17:02;;;;;;;21.80;7.70;;;2.10;99.90;;;;;;5082105;28;20545;-80
2021/12/21 09:19:32;;;;;;;15.73;7.17;;;2.20;99.90;;;;;;5075260;28;20192;-78
2021/12/21 09:22:05;;;;;;;13.73;6.47;;;2.30;99.90;;;;;;5089867;28;20200;-80
2021/12/21 09:24:36;;;;;;;20.53;9.70;;;2.40;99.90;;;;;;5093279;28;20597;-79
2021/12/21 09:27:04;;;;;;;14.83;7.60;;;2.40;99.90;;;;;;5078757;28;20193;-79
2021/12/21 09:29:33;;;;;;;12.27;6.60;;;2.50;99.90;;;;;;5095164;28;20199;-82
2021/12/21 09:32:00;;;;;;;28.30;13.27;;;2.50;99.90;;;;;;5090163;28;20176;-78
2021/12/21 09:34:31;;;;;;;51.50;22.53;;;2.50;99.90;;;;;;5091223;28;20180;-81
2021/12/21 09:37:02;;;;;;;36.60;17.27;;;2.50;99.90;;;;;;5084372;28;20191;-82
2021/12/21 09:39:29;;;;;;;23.57;9.70;;;2.70;99.90;;;;;;5080460;28;20215;-79
2021/12/21 09:41:57;;;;;;;12.37;7.80;;;2.80;99.90;;;;;;5082812;28;20200;-78
2021/12/21 09:44:25;;;;;;;25.83;12.87;;;2.90;99.90;;;;;;5085752;28;20303;-81
2021/12/21 09:46:59;;;;;;;17.00;10.13;;;3.00;99.90;;;;;;5087186;28;20194;-81
2021/12/21 09:49:28;;;;;;;29.67;16.20;;;3.20;99.90;;;;;;5082283;28;20197;-80
2021/12/21 09:51:56;;;;;;;16.00;7.67;;;3.20;99.90;;;;;;5085088;28;20272;-82
2021/12/21 09:54:26;;;;;;;16.13;8.43;;;3.30;99.90;;;;;;5085315;28;20220;-81
2021/12/21 09:56:57;;;;;;;20.00;8.80;;;3.30;99.90;;;;;;5084670;28;20201;-81
2021/12/21 09:59:27;;;;;;;21.80;9.07;;;3.30;99.90;;;;;;5085170;28;20202;-81
2021/12/21 10:01:57;;;;;;;22.30;9.03;;;3.30;99.90;;;;;;5086368;28;20201;-81
2021/12/21 10:04:29;;;;;;;19.97;9.27;;;3.30;99.90;;;;;;5087511;28;20649;-82
2021/12/21 10:07:00;;;;;;;18.30;10.10;;;3.30;99.90;;;;;;5082561;28;20247;-82
2021/12/21 10:09:36;;;;;;;28.73;12.90;;;3.30;99.90;;;;;;5081550;28;20223;-80
2021/12/21 10:12:04;;;;;;;20.53;8.90;;;3.30;99.90;;;;;;5086953;28;20258;-81
2021/12/21 10:14:32;;;;;;;29.23;9.27;;;3.20;99.90;;;;;;5086257;28;20205;-81
2021/12/21 10:17:10;;;;;;;17.30;7.90;;;3.20;99.90;;;;;;5086167;28;20656;-81
2021/12/21 10:19:46;;;;;;;30.20;11.57;;;3.20;99.90;;;;;;5086715;28;20223;-80
2021/12/21 10:22:21;;;;;;;20.90;8.87;;;3.20;99.90;;;;;;5089512;28;20192;-80
2021/12/21 10:24:52;;;;;;;25.97;9.47;;;3.20;99.90;;;;;;5091174;28;20192;-80
2021/12/21 10:27:34;;;;;;;22.30;9.03;;;3.20;99.90;;;;;;5092526;28;20259;-81
2021/12/21 10:30:13;;;;;;;23.17;9.20;;;3.20;99.90;;;;;;5086726;28;20632;-81
2021/12/21 10:33:00;;;;;;;18.07;9.43;;;3.30;99.90;;;;;;5099275;28;20183;-82
2021/12/21 10:35:34;;;;;;;20.83;7.83;;;3.20;99.90;;;;;;5109404;28;20191;-80
2021/12/21 10:38:04;;;;;;;24.00;8.70;;;3.20;99.90;;;;;;5113396;28;20210;-82
2021/12/21 10:40:32;;;;;;;16.80;7.23;;;3.10;99.90;;;;;;5110213;28;20187;-79
2021/12/21 10:43:05;;;;;;;29.97;8.93;;;3.10;99.90;;;;;;5102297;28;20217;-80
2021/12/21 10:45:40;;;;;;;22.67;8.10;;;3.10;99.90;;;;;;5106358;28;20221;-82
2021/12/21 10:48:18;;;;;;;16.93;6.50;;;3.20;99.90;;;;;;5110780;28;20195;-80
2021/12/21 10:50:48;;;;;;;21.60;7.27;;;3.30;99.90;;;;;;5089247;28;20609;-78
2021/12/21 10:53:25;;;;;;;25.57;9.03;;;3.30;99.90;;;;;;5096757;28;20203;-81
2021/12/21 10:56:04;;;;;;;19.30;8.63;;;3.30;99.90;;;;;;5091777;28;20193;-79
2021/12/21 10:58:50;;;;;;;25.90;7.53;;;3.40;99.90;;;;;;5111863;28;20200;-82
2021/12/21 11:01:28;;;;;;;30.27;12.40;;;3.40;99.90;;;;;;5094892;28;20196;-82
2021/12/21 11:04:03;;;;;;;34.33;13.27;;;3.40;99.90;;;;;;5093128;28;20625;-81
2021/12/21 11:06:34;;;;;;;16.93;8.93;;;3.40;99.90;;;;;;5081350;28;20191;-80
2021/12/21 11:09:04;;;;;;;30.07;12.30;;;3.40;99.90;;;;;;5079849;28;20261;-81
2021/12/21 11:11:34;;;;;;;12.10;7.80;;;3.40;99.90;;;;;;5091192;28;20686;-80
2021/12/21 11:14:10;;;;;;;16.33;9.07;;;3.40;99.90;;;;;;5113652;28;20187;-81
2021/12/21 11:16:41;;;;;;;33.33;14.40;;;3.40;99.90;;;;;;5114083;28;20266;-82
2021/12/21 11:19:11;;;;;;;21.03;10.80;;;3.50;99.90;;;;;;5114491;28;20201;-81
2021/12/21 11:21:39;;;;;;;25.23;13.07;;;3.40;99.90;;;;;;5114346;28;20197;-81
2021/12/21 11:24:13;;;;;;;60.70;27.00;;;3.40;99.90;;;;;;5111682;28;20183;-79
2021/12/21 11:26:42;;;;;;;100.33;41.40;;;3.40;99.90;;;;;;5112963;28;20190;-81
2021/12/21 11:29:22;;;;;;;108.00;44.10;;;3.40;99.90;;;;;;5114473;28;20270;-82
2021/12/21 11:31:54;;;;;;;59.70;27.97;;;3.50;99.90;;;;;;5113921;28;20826;-80
2021/12/21 11:34:37;;;;;;;62.30;29.60;;;3.50;99.90;;;;;;5114478;28;20184;-82
2021/12/21 11:37:21;;;;;;;31.80;18.00;;;3.50;99.90;;;;;;5113855;28;20201;-82
2021/12/21 11:39:49;;;;;;;30.63;18.33;;;3.50;99.90;;;;;;5111069;28;20202;-80
2021/12/21 11:42:31;;;;;;;39.23;22.33;;;3.40;99.90;;;;;;5102928;28;20206;-81
2021/12/21 11:45:12;;;;;;;26.17;11.33;;;3.50;99.90;;;;;;5095997;28;20198;-80
2021/12/21 11:47:48;;;;;;;32.13;17.13;;;3.40;99.90;;;;;;5086815;28;20654;-78
2021/12/21 11:50:20;;;;;;;22.23;15.23;;;3.40;99.90;;;;;;5093762;28;20241;-81
2021/12/21 11:52:49;;;;;;;17.53;10.00;;;3.40;99.90;;;;;;5091697;28;20220;-80
2021/12/21 11:55:27;;;;;;;32.17;18.43;;;3.40;99.90;;;;;;5093518;28;20211;-82
2021/12/21 11:57:59;;;;;;;19.27;10.70;;;3.30;99.90;;;;;;5091346;28;20241;-81
2021/12/21 12:00:37;;;;;;;37.23;17.97;;;3.40;99.90;;;;;;5093273;28;20199;-81
2021/12/21 12:03:18;;;;;;;31.30;17.77;;;3.30;99.90;;;;;;5087106;28;20204;-79
2021/12/21 12:05:56;;;;;;;27.83;16.03;;;3.40;99.90;;;;;;5089606;28;20193;-79
2021/12/21 12:08:26;;;;;;;53.47;32.50;;;3.40;99.90;;;;;;5085197;28;20211;-78
2021/12/21 12:10:57;;;;;;;30.70;18.70;;;3.50;99.90;;;;;;5088181;28;20204;-83
2021/12/21 12:13:32;;;;;;;33.13;21.00;;;3.60;99.90;;;;;;5099096;28;20240;-80
2021/12/21 12:16:06;;;;;;;32.87;20.10;;;3.60;99.90;;;;;;5095269;28;20183;-80
2021/12/21 12:18:35;;;;;;;28.20;11.60;;;3.60;99.90;;;;;;5094830;28;20198;-80
2021/12/21 12:21:18;;;;;;;24.57;10.80;;;3.60;99.90;;;;;;5095475;28;20201;-80
2021/12/21 12:23:51;;;;;;;28.97;12.90;;;3.60;99.90;;;;;;5095583;28;20273;-80
2021/12/21 12:26:27;;;;;;;22.33;8.07;;;3.50;99.90;;;;;;5095147;28;20533;-80
2021/12/21 12:28:56;;;;;;;25.03;8.30;;;3.50;99.90;;;;;;5095366;28;20259;-80
2021/12/21 12:31:31;;;;;;;13.23;8.30;;;3.50;99.90;;;;;;5095011;28;20210;-79
2021/12/21 12:33:59;;;;;;;14.77;7.30;;;3.40;99.90;;;;;;5095285;28;20179;-80
2021/12/21 12:36:41;;;;;;;16.17;6.73;;;3.40;99.90;;;;;;5095217;28;20193;-80
2021/12/21 12:39:09;;;;;;;13.43;6.43;;;3.40;99.90;;;;;;5098379;28;20183;-81
2021/12/21 12:41:49;;;;;;;17.27;6.27;;;3.30;99.90;;;;;;5107504;28;20240;-78
2021/12/21 12:44:31;;;;;;;17.47;6.30;;;3.30;99.90;;;;;;5090228;28;20214;-79
2021/12/21 12:47:02;;;;;;;12.33;7.40;;;3.30;99.90;;;;;;5087970;28;20287;-81
2021/12/21 12:49:37;;;;;;;16.47;6.90;;;3.20;99.90;;;;;;5096164;28;20219;-83
2021/12/21 12:52:15;;;;;;;18.10;6.97;;;3.10;99.90;;;;;;5096885;28;20185;-81
2021/12/21 12:54:52;;;;;;;15.00;7.30;;;3.10;99.90;;;;;;5093339;28;20278;-80
2021/12/21 12:57:30;;;;;;;39.17;16.07;;;3.00;99.90;;;;;;5089146;28;20196;-82
2021/12/21 13:00:06;;;;;;;39.87;16.13;;;2.90;99.90;;;;;;5093027;28;20179;-80
2021/12/21 13:02:34;;;;;;;33.93;15.60;;;2.90;99.90;;;;;;5093638;28;20249;-80
2021/12/21 13:05:06;;;;;;;38.47;20.57;;;2.80;99.90;;;;;;5091071;28;20212;-80
2021/12/21 13:07:36;;;;;;;20.67;8.33;;;2.70;99.90;;;;;;5091857;28;20182;-80
2021/12/21 13:10:09;;;;;;;15.47;6.60;;;2.60;99.90;;;;;;5094390;28;20213;-80
2021/12/21 13:12:37;;;;;;;11.83;4.90;;;2.50;99.90;;;;;;5092968;28;20263;-80
2021/12/21 13:15:14;;;;;;;10.83;5.07;;;2.50;99.90;;;;;;5082886;28;20215;-83
2021/12/21 13:17:43;;;;;;;24.00;10.00;;;2.40;99.90;;;;;;5094967;28;20200;-80
2021/12/21 13:20:27;;;;;;;20.30;10.60;;;2.40;99.90;;;;;;5093395;28;20181;-82
2021/12/21 13:22:56;;;;;;;12.20;5.77;;;2.30;99.90;;;;;;5074320;28;20212;-80
2021/12/21 13:25:23;;;;;;;9.97;5.90;;;2.30;99.90;;;;;;5094904;28;20244;-83
2021/12/21 13:27:50;;;;;;;8.87;4.47;;;2.20;99.90;;;;;;5078562;28;20210;-80
2021/12/21 13:30:20;;;;;;;9.57;5.87;;;2.10;99.90;;;;;;5081753;28;20215;-80
2021/12/21 13:32:47;;;;;;;13.43;7.97;;;2.10;99.90;;;;;;5092987;28;20281;-79
2021/12/21 13:35:17;;;;;;;21.03;7.90;;;2.00;99.90;;;;;;5073561;28;20215;-80
2021/12/21 13:37:44;;;;;;;19.27;8.37;;;2.00;99.90;;;;;;5079527;28;20225;-80